createdAt,value
2022-12-01T00:01:34.849Z,1.35
2022-12-01T00:04:02.746Z,1.31
2022-12-01T00:06:30.729Z,1.38
2022-12-01T00:09:20.010Z,1.48
2022-12-01T00:11:48.943Z,1.42
2022-12-01T00:14:17.364Z,1.34
2022-12-01T00:16:45.649Z,1.39
2022-12-01T00:19:13.648Z,1.31
2022-12-01T00:21:41.494Z,1.37
2022-12-01T00:24:11.885Z,1.44
2022-12-01T00:26:40.011Z,1.61
2022-12-01T00:29:09.571Z,1.74
2022-12-01T00:31:37.878Z,1.87
2022-12-01T00:34:11.019Z,1.86
2022-12-01T00:36:39.538Z,2.00
2022-12-01T00:39:08.594Z,2.00
2022-12-01T00:41:36.564Z,2.02
2022-12-01T00:44:05.205Z,1.97
2022-12-01T00:46:33.254Z,1.94
2022-12-01T00:49:01.310Z,1.76
2022-12-01T00:51:29.266Z,1.69
2022-12-01T00:53:57.843Z,1.58
2022-12-01T00:56:25.754Z,1.43
2022-12-01T00:58:53.672Z,1.36
2022-12-01T01:01:21.683Z,1.51
2022-12-01T01:03:49.599Z,1.39
2022-12-01T01:06:17.537Z,1.35
2022-12-01T01:08:46.484Z,1.45
2022-12-01T01:11:14.466Z,1.54
2022-12-01T01:13:42.494Z,1.54
2022-12-01T01:16:17.041Z,1.44
2022-12-01T01:18:45.245Z,1.34
2022-12-01T01:21:18.514Z,1.43
2022-12-01T01:23:47.812Z,1.39
2022-12-01T01:26:20.511Z,1.48
2022-12-01T01:28:50.362Z,1.63
2022-12-01T01:31:23.063Z,1.59
2022-12-01T01:33:51.571Z,1.45
2022-12-01T01:36:19.712Z,1.51
2022-12-01T01:38:51.438Z,1.61
2022-12-01T01:41:20.373Z,1.60
2022-12-01T01:43:56.707Z,1.40
2022-12-01T01:46:32.432Z,1.39
2022-12-01T01:49:05.806Z,1.39
2022-12-01T01:51:46.610Z,1.47
2022-12-01T01:54:33.582Z,1.32
2022-12-01T01:57:04.739Z,1.37
2022-12-01T01:59:39.628Z,1.37
2022-12-01T02:02:10.846Z,1.39
2022-12-01T02:04:49.180Z,1.42
2022-12-01T02:07:19.540Z,1.45
2022-12-01T02:09:47.673Z,1.61
2022-12-01T02:12:39.622Z,1.64
2022-12-01T02:15:42.344Z,1.66
2022-12-01T02:18:13.283Z,1.60
2022-12-01T02:21:30.742Z,1.49
2022-12-01T02:24:39.676Z,1.61
2022-12-01T02:27:34.887Z,1.45
2022-12-01T02:30:13.869Z,1.49
2022-12-01T02:32:59.581Z,1.46
2022-12-01T02:35:47.062Z,1.24
2022-12-01T02:38:30.934Z,1.21
2022-12-01T02:41:12.583Z,1.36
2022-12-01T02:43:54.231Z,1.49
2022-12-01T02:46:35.637Z,1.55
2022-12-01T02:49:12.046Z,1.59
2022-12-01T02:51:44.646Z,1.31
2022-12-01T02:54:15.044Z,1.22
2022-12-01T02:56:45.879Z,1.24
2022-12-01T02:59:15.262Z,1.44
2022-12-01T03:02:02.035Z,1.58
2022-12-01T03:04:47.931Z,1.50
2022-12-01T03:07:49.706Z,1.44
2022-12-01T03:10:38.739Z,1.32
2022-12-01T03:13:41.882Z,1.30
2022-12-01T03:16:18.325Z,1.43
2022-12-01T03:19:06.395Z,1.52
2022-12-01T03:22:23.243Z,1.55
2022-12-01T03:24:55.122Z,1.54
2022-12-01T03:27:29.694Z,1.54
2022-12-01T03:30:01.207Z,1.46
2022-12-01T03:32:46.523Z,1.58
2022-12-01T03:35:33.285Z,1.63
2022-12-01T03:38:11.551Z,1.46
2022-12-01T03:40:41.397Z,1.24
2022-12-01T03:43:17.873Z,1.42
2022-12-01T03:46:24.668Z,1.59
2022-12-01T03:48:54.273Z,1.66
2022-12-01T03:51:39.705Z,1.73
2022-12-01T03:54:26.966Z,1.72
2022-12-01T03:57:05.413Z,1.65
2022-12-01T03:59:36.313Z,1.69
2022-12-01T04:02:07.743Z,1.62
2022-12-01T04:04:35.908Z,1.62
2022-12-01T04:07:04.077Z,1.57
2022-12-01T04:09:31.971Z,1.40
2022-12-01T04:12:18.777Z,1.48
2022-12-01T04:14:46.685Z,1.39
2022-12-01T04:17:14.539Z,1.30
2022-12-01T04:19:42.425Z,1.40
2022-12-01T04:22:10.273Z,1.53
2022-12-01T04:24:38.131Z,1.65
2022-12-01T04:27:06.016Z,1.61
2022-12-01T04:29:33.986Z,1.67
2022-12-01T04:32:02.020Z,1.59
2022-12-01T04:34:29.877Z,1.49
2022-12-01T04:36:57.742Z,1.53
2022-12-01T04:39:25.677Z,1.55
2022-12-01T04:41:53.533Z,1.53
2022-12-01T04:44:21.457Z,1.55
2022-12-01T04:46:52.328Z,1.56
2022-12-01T04:49:21.927Z,1.59
2022-12-01T04:51:50.044Z,1.61
2022-12-01T04:54:18.575Z,1.62
2022-12-01T04:56:46.551Z,1.65
2022-12-01T04:59:14.419Z,1.70
2022-12-01T05:01:43.144Z,1.77
2022-12-01T05:04:13.477Z,1.65
2022-12-01T05:06:41.693Z,1.68
2022-12-01T05:09:17.212Z,1.70
2022-12-01T05:11:45.964Z,1.72
2022-12-01T05:14:13.934Z,1.72
2022-12-01T05:16:41.898Z,1.66
2022-12-01T05:19:28.569Z,1.55
2022-12-01T05:21:56.432Z,1.73
2022-12-01T05:24:24.275Z,1.70
2022-12-01T05:26:52.119Z,1.72
2022-12-01T05:29:19.958Z,1.81
2022-12-01T05:31:48.991Z,1.75
2022-12-01T05:34:16.991Z,1.79
2022-12-01T05:36:44.809Z,1.66
2022-12-01T05:39:12.679Z,1.76
2022-12-01T05:41:40.507Z,1.77
2022-12-01T05:44:08.532Z,1.78
2022-12-01T05:46:36.406Z,1.86
2022-12-01T05:49:05.730Z,1.83
2022-12-01T05:51:33.637Z,1.81
2022-12-01T05:54:01.581Z,1.70
2022-12-01T05:56:29.494Z,1.67
2022-12-01T05:58:57.352Z,1.72
2022-12-01T06:01:25.309Z,1.88
2022-12-01T06:03:54.217Z,1.91
2022-12-01T06:06:22.109Z,1.88
2022-12-01T06:08:49.975Z,1.59
2022-12-01T06:11:17.999Z,1.69
2022-12-01T06:13:45.903Z,1.72
2022-12-01T06:16:13.887Z,1.68
2022-12-01T06:18:41.869Z,1.73
2022-12-01T06:21:09.818Z,1.64
2022-12-01T06:23:38.610Z,1.70
2022-12-01T06:26:06.437Z,1.71
2022-12-01T06:28:34.757Z,1.68
2022-12-01T06:31:03.769Z,1.67
2022-12-01T06:33:32.475Z,1.73
2022-12-01T06:36:07.268Z,1.88
2022-12-01T06:38:37.032Z,2.02
2022-12-01T06:41:08.665Z,1.78
2022-12-01T06:43:38.186Z,1.72
2022-12-01T06:46:06.404Z,1.92
2022-12-01T06:48:37.295Z,1.97
2022-12-01T06:51:05.393Z,1.92
2022-12-01T06:53:33.233Z,1.83
2022-12-01T06:56:03.510Z,1.69
2022-12-01T06:58:31.914Z,1.78
2022-12-01T07:01:00.737Z,1.82
2022-12-01T07:03:28.675Z,1.92
2022-12-01T07:05:59.117Z,2.00
2022-12-01T07:08:29.616Z,1.99
2022-12-01T07:11:07.543Z,2.18
2022-12-01T07:13:36.291Z,2.26
2022-12-01T07:16:05.813Z,2.13
2022-12-01T07:18:35.004Z,2.15
2022-12-01T07:21:11.365Z,2.13
2022-12-01T07:23:39.953Z,2.31
2022-12-01T07:26:15.611Z,2.42
2022-12-01T07:28:44.820Z,2.43
2022-12-01T07:31:17.338Z,2.26
2022-12-01T07:33:45.355Z,2.18
2022-12-01T07:36:14.642Z,2.20
2022-12-01T07:38:42.956Z,2.25
2022-12-01T07:41:16.829Z,2.40
2022-12-01T07:43:48.291Z,2.23
2022-12-01T07:46:23.308Z,2.12
2022-12-01T07:48:54.222Z,2.14
2022-12-01T07:51:24.360Z,2.19
2022-12-01T07:53:54.239Z,2.17
2022-12-01T07:56:23.262Z,2.30
2022-12-01T07:58:51.360Z,2.31
2022-12-01T08:01:22.166Z,2.28
2022-12-01T08:03:54.288Z,2.23
2022-12-01T08:06:23.833Z,2.18
2022-12-01T08:08:52.357Z,2.41
2022-12-01T08:11:26.717Z,2.53
2022-12-01T08:13:54.750Z,2.50
2022-12-01T08:16:24.478Z,2.48
2022-12-01T08:18:53.251Z,2.38
2022-12-01T08:21:24.030Z,2.51
2022-12-01T08:23:57.014Z,2.49
2022-12-01T08:26:26.219Z,2.39
2022-12-01T08:28:54.429Z,2.34
2022-12-01T08:31:27.247Z,2.41
2022-12-01T08:33:55.576Z,2.18
2022-12-01T08:36:24.497Z,2.24
2022-12-01T08:38:55.650Z,2.32
2022-12-01T08:41:24.588Z,2.24
2022-12-01T08:44:01.104Z,2.29
2022-12-01T08:46:34.714Z,2.31
2022-12-01T08:49:05.580Z,2.18
2022-12-01T08:51:33.886Z,2.24
2022-12-01T08:54:02.393Z,2.22
2022-12-01T08:56:41.601Z,2.42
2022-12-01T08:59:10.108Z,2.44
2022-12-01T09:01:51.956Z,2.57
2022-12-01T09:04:23.878Z,2.64
2022-12-01T09:06:54.570Z,2.68
2022-12-01T09:09:28.708Z,2.62
2022-12-01T09:11:58.124Z,2.50
2022-12-01T09:14:26.060Z,2.59
2022-12-01T09:16:54.194Z,2.65
2022-12-01T09:19:25.012Z,2.51
2022-12-01T09:21:53.395Z,2.54
2022-12-01T09:24:21.397Z,2.52
2022-12-01T09:26:49.507Z,2.72
2022-12-01T09:29:17.418Z,2.82
2022-12-01T09:31:45.386Z,3.07
2022-12-01T09:34:18.194Z,3.15
2022-12-01T09:36:47.750Z,3.16
2022-12-01T09:39:19.181Z,3.23
2022-12-01T09:42:08.239Z,3.10
2022-12-01T09:44:48.094Z,3.00
2022-12-01T09:47:29.872Z,3.00
2022-12-01T09:50:14.751Z,3.66
2022-12-01T09:53:07.605Z,4.00
2022-12-01T09:55:36.153Z,4.28
2022-12-01T09:58:05.578Z,4.23
2022-12-01T10:00:40.210Z,4.44
2022-12-01T10:03:46.405Z,4.48
2022-12-01T10:06:29.307Z,4.50
2022-12-01T10:09:09.679Z,4.52
2022-12-01T10:11:45.158Z,4.41
2022-12-01T10:14:20.757Z,3.93
2022-12-01T10:17:30.542Z,3.58
2022-12-01T10:20:13.915Z,3.63
2022-12-01T10:23:15.144Z,3.75
2022-12-01T10:26:03.717Z,3.85
2022-12-01T10:29:23.167Z,3.70
2022-12-01T10:31:58.179Z,3.40
2022-12-01T10:34:34.215Z,3.64
2022-12-01T10:37:02.353Z,3.82
2022-12-01T10:39:46.474Z,3.70
2022-12-01T10:42:46.283Z,3.78
2022-12-01T10:45:26.591Z,3.76
2022-12-01T10:48:21.748Z,3.65
2022-12-01T10:50:54.076Z,3.43
2022-12-01T10:53:30.426Z,3.33
2022-12-01T10:56:14.055Z,3.50
2022-12-01T10:58:58.197Z,3.49
2022-12-01T11:01:35.639Z,3.58
2022-12-01T11:04:24.904Z,3.56
2022-12-01T11:06:53.688Z,3.55
2022-12-01T11:09:28.155Z,3.63
2022-12-01T11:12:02.879Z,3.65
2022-12-01T11:14:45.975Z,3.74
2022-12-01T11:17:26.171Z,3.67
2022-12-01T11:19:54.322Z,3.35
2022-12-01T11:22:28.898Z,3.37
2022-12-01T11:25:00.966Z,3.44
2022-12-01T11:27:44.327Z,3.49
2022-12-01T11:30:32.750Z,3.55
2022-12-01T11:33:04.157Z,3.46
2022-12-01T11:35:36.211Z,3.43
2022-12-01T11:38:28.719Z,3.37
2022-12-01T11:40:57.109Z,3.43
2022-12-01T11:43:38.349Z,3.44
2022-12-01T11:46:09.091Z,3.42
2022-12-01T11:48:36.966Z,3.51
2022-12-01T11:51:24.387Z,3.54
2022-12-01T11:54:18.861Z,3.57
2022-12-01T11:56:56.113Z,3.46
2022-12-01T11:59:32.345Z,3.44
2022-12-01T12:02:47.825Z,3.38
2022-12-01T12:06:31.959Z,3.36
2022-12-01T12:09:39.047Z,3.46
2022-12-01T12:12:09.630Z,3.56
2022-12-01T12:14:48.406Z,3.61
2022-12-01T12:17:57.830Z,3.44
2022-12-01T12:20:44.888Z,3.50
2022-12-01T12:23:35.405Z,3.67
2022-12-01T12:26:19.003Z,3.66
2022-12-01T12:29:10.695Z,3.68
2022-12-01T12:31:50.523Z,3.56
2022-12-01T12:34:36.989Z,3.55
2022-12-01T12:37:37.178Z,3.62
2022-12-01T12:40:28.523Z,3.43
2022-12-01T12:43:20.035Z,3.38
2022-12-01T12:46:07.294Z,3.64
2022-12-01T12:49:19.295Z,4.00
2022-12-01T12:52:08.081Z,4.20
2022-12-01T12:54:52.264Z,4.11
2022-12-01T12:57:32.886Z,4.21
2022-12-01T13:00:17.027Z,4.35
2022-12-01T13:03:11.862Z,4.18
2022-12-01T13:06:06.809Z,4.28
2022-12-01T13:08:52.103Z,4.17
2022-12-01T13:11:44.471Z,4.49
2022-12-01T13:14:34.449Z,4.68
2022-12-01T13:17:39.038Z,4.73
2022-12-01T13:20:15.266Z,4.30
2022-12-01T13:22:43.470Z,4.59
2022-12-01T13:25:20.109Z,4.65
2022-12-01T13:27:50.636Z,4.32
2022-12-01T13:30:25.275Z,4.35
2022-12-01T13:33:05.324Z,4.55
2022-12-01T13:35:39.166Z,4.47
2022-12-01T13:38:24.876Z,4.49
2022-12-01T13:41:17.950Z,4.73
2022-12-01T13:43:59.408Z,4.72
2022-12-01T13:46:33.006Z,4.64
2022-12-01T13:49:03.706Z,4.69
2022-12-01T13:52:16.403Z,4.39
2022-12-01T13:55:09.740Z,4.38
2022-12-01T13:57:47.699Z,3.95
2022-12-01T14:00:32.057Z,3.90
2022-12-01T14:03:12.302Z,4.01
2022-12-01T14:05:40.189Z,3.74
2022-12-01T14:08:33.214Z,3.64
2022-12-01T14:11:17.271Z,3.74
2022-12-01T14:14:25.943Z,3.58
2022-12-01T14:17:02.619Z,3.40
2022-12-01T14:19:42.671Z,3.50
2022-12-01T14:22:37.201Z,3.56
2022-12-01T14:25:21.130Z,3.46
2022-12-01T14:28:00.711Z,3.40
2022-12-01T14:30:46.763Z,3.44
2022-12-01T14:33:39.829Z,3.34
2022-12-01T14:36:23.026Z,3.26
2022-12-01T14:38:59.765Z,3.33
2022-12-01T14:41:52.965Z,3.35
2022-12-01T14:44:34.881Z,3.38
2022-12-01T14:47:12.192Z,3.55
2022-12-01T14:50:01.437Z,3.45
2022-12-01T14:52:29.247Z,3.30
2022-12-01T14:55:02.653Z,3.18
2022-12-01T14:57:46.100Z,3.06
2022-12-01T15:00:23.767Z,3.17
2022-12-01T15:03:00.037Z,3.22
2022-12-01T15:05:37.662Z,3.30
2022-12-01T15:08:49.169Z,3.13
2022-12-01T15:11:25.955Z,3.13
2022-12-01T15:13:56.806Z,3.21
2022-12-01T15:16:35.368Z,3.05
2022-12-01T15:19:22.597Z,3.16
2022-12-01T15:21:51.601Z,3.14
2022-12-01T15:24:28.177Z,3.27
2022-12-01T15:27:03.486Z,3.43
2022-12-01T15:29:46.948Z,3.42
2022-12-01T15:32:21.037Z,3.38
2022-12-01T15:34:54.443Z,3.26
2022-12-01T15:37:26.106Z,3.26
2022-12-01T15:43:14.313Z,3.41
2022-12-01T15:46:01.721Z,3.38
2022-12-01T15:48:36.293Z,3.16
2022-12-01T15:51:16.169Z,3.31
2022-12-01T15:53:59.703Z,3.16
2022-12-01T15:56:36.175Z,3.25
2022-12-01T15:59:25.940Z,3.39
2022-12-01T16:01:54.634Z,3.22
2022-12-01T16:04:29.498Z,3.18
2022-12-01T16:07:10.248Z,3.17
2022-12-01T16:09:59.356Z,3.09
2022-12-01T16:12:33.887Z,3.19
2022-12-01T16:15:03.212Z,3.24
2022-12-01T16:17:52.543Z,3.21
2022-12-01T16:20:32.373Z,3.09
2022-12-01T16:23:09.463Z,2.98
2022-12-01T16:25:44.451Z,3.08
2022-12-01T16:28:30.832Z,3.29
2022-12-01T16:30:59.116Z,3.09
2022-12-01T16:33:28.986Z,3.04
2022-12-01T16:36:00.177Z,3.11
2022-12-01T16:38:28.996Z,3.19
2022-12-01T16:41:00.399Z,3.25
2022-12-01T16:43:29.598Z,3.26
2022-12-01T16:46:03.980Z,3.11
2022-12-01T16:48:32.216Z,3.15
2022-12-01T16:51:04.632Z,3.33
2022-12-01T16:53:32.524Z,3.43
2022-12-01T16:56:03.306Z,3.46
2022-12-01T16:58:31.262Z,3.29
2022-12-01T17:00:59.702Z,3.06
2022-12-01T17:03:28.435Z,3.17
2022-12-01T17:05:59.558Z,3.26
2022-12-01T17:08:28.198Z,3.17
2022-12-01T17:10:56.352Z,3.22
2022-12-01T17:13:24.368Z,3.23
2022-12-01T17:15:54.778Z,3.25
2022-12-01T17:18:24.021Z,3.13
2022-12-01T17:21:10.233Z,3.05
2022-12-01T17:23:39.864Z,3.05
2022-12-01T17:26:17.148Z,3.09
2022-12-01T17:28:45.228Z,3.12
2022-12-01T17:31:13.808Z,3.19
2022-12-01T17:33:41.741Z,3.13
2022-12-01T17:36:15.088Z,2.91
2022-12-01T17:38:46.312Z,3.04
2022-12-01T17:41:20.719Z,3.04
2022-12-01T17:43:48.982Z,3.05
2022-12-01T17:46:17.506Z,3.11
2022-12-01T17:48:46.786Z,3.09
2022-12-01T17:51:15.416Z,3.04
2022-12-01T17:53:43.304Z,3.19
2022-12-01T17:56:14.769Z,3.19
2022-12-01T17:58:42.910Z,3.19
2022-12-01T18:01:17.420Z,2.98
2022-12-01T18:03:46.680Z,2.97
2022-12-01T18:06:16.720Z,2.87
2022-12-01T18:08:44.910Z,2.87
2022-12-01T18:11:16.341Z,3.00
2022-12-01T18:13:47.636Z,3.01
2022-12-01T18:16:23.502Z,3.02
2022-12-01T18:18:52.027Z,3.13
2022-12-01T18:21:22.890Z,3.16
2022-12-01T18:24:02.895Z,2.96
2022-12-01T18:26:35.923Z,3.06
2022-12-01T18:29:07.067Z,3.06
2022-12-01T18:31:35.968Z,2.93
2022-12-01T18:34:06.893Z,2.79
2022-12-01T18:36:39.151Z,2.91
2022-12-01T18:39:09.392Z,2.89
2022-12-01T18:41:37.744Z,2.96
2022-12-01T18:44:06.103Z,3.07
2022-12-01T18:46:34.259Z,3.02
2022-12-01T18:49:02.995Z,2.97
2022-12-01T18:51:34.843Z,2.84
2022-12-01T18:54:05.543Z,3.01
2022-12-01T18:56:34.943Z,3.08
2022-12-01T18:59:06.393Z,2.98
2022-12-01T19:01:38.302Z,3.08
2022-12-01T19:04:07.654Z,2.92
2022-12-01T19:06:38.925Z,2.85
2022-12-01T19:09:09.905Z,2.89
2022-12-01T19:11:40.478Z,2.96
2022-12-01T19:14:17.257Z,3.14
2022-12-01T19:16:46.571Z,3.15
2022-12-01T19:19:14.613Z,3.05
2022-12-01T19:21:45.098Z,3.04
2022-12-01T19:24:13.630Z,3.04
2022-12-01T19:26:41.655Z,3.06
2022-12-01T19:29:09.594Z,3.14
2022-12-01T19:31:37.780Z,3.12
2022-12-01T19:34:06.074Z,2.94
2022-12-01T19:36:33.959Z,2.93
2022-12-01T19:39:04.404Z,3.01
2022-12-01T19:41:38.498Z,3.02
2022-12-01T19:44:06.670Z,2.89
2022-12-01T19:46:34.678Z,2.80
2022-12-01T19:49:03.918Z,2.68
2022-12-01T19:51:36.935Z,2.79
2022-12-01T19:54:07.028Z,2.97
2022-12-01T19:56:34.861Z,3.04
2022-12-01T19:59:02.911Z,3.08
2022-12-01T20:01:30.893Z,3.11
2022-12-01T20:03:59.402Z,2.99
2022-12-01T20:06:30.412Z,3.04
2022-12-01T20:09:02.309Z,3.20
2022-12-01T20:11:32.681Z,3.25
2022-12-01T20:14:03.102Z,3.09
2022-12-01T20:16:32.162Z,3.04
2022-12-01T20:19:03.157Z,2.98
2022-12-01T20:21:35.231Z,2.98
2022-12-01T20:24:07.051Z,2.90
2022-12-01T20:26:46.385Z,2.67
2022-12-01T20:29:27.202Z,2.46
2022-12-01T20:31:58.288Z,2.66
2022-12-01T20:34:31.700Z,2.78
2022-12-01T20:37:00.998Z,2.86
2022-12-01T20:39:31.888Z,2.82
2022-12-01T20:42:00.124Z,2.84
2022-12-01T20:44:29.188Z,2.87
2022-12-01T20:46:57.814Z,2.89
2022-12-01T20:49:26.221Z,2.86
2022-12-01T20:51:54.769Z,2.72
2022-12-01T20:54:30.571Z,2.76
2022-12-01T20:56:59.102Z,2.83
2022-12-01T20:59:27.502Z,2.81
2022-12-01T21:01:55.989Z,2.84
2022-12-01T21:04:24.288Z,3.00
2022-12-01T21:06:56.527Z,2.94
2022-12-01T21:09:26.074Z,2.98
2022-12-01T21:12:13.189Z,2.69
2022-12-01T21:15:12.290Z,2.68
2022-12-01T21:17:46.353Z,2.65
2022-12-01T21:20:25.173Z,2.81
2022-12-01T21:22:53.599Z,2.66
2022-12-01T21:25:25.552Z,2.73
2022-12-01T21:27:57.993Z,2.83
2022-12-01T21:30:26.310Z,2.91
2022-12-01T21:33:00.197Z,2.79
2022-12-01T21:35:28.087Z,2.83
2022-12-01T21:38:04.386Z,2.87
2022-12-01T21:40:32.370Z,2.83
2022-12-01T21:43:19.360Z,2.76
2022-12-01T21:46:00.454Z,2.76
2022-12-01T21:48:35.641Z,2.80
2022-12-01T21:51:19.758Z,2.93
2022-12-01T21:53:48.696Z,3.01
2022-12-01T21:56:23.815Z,2.94
2022-12-01T21:58:53.304Z,2.93
2022-12-01T22:01:30.491Z,2.70
2022-12-01T22:04:02.446Z,2.48
2022-12-01T22:06:44.498Z,2.57
2022-12-01T22:09:27.595Z,2.61
2022-12-01T22:12:29.902Z,2.70
2022-12-01T22:15:01.563Z,2.71
2022-12-01T22:17:29.789Z,2.90
2022-12-01T22:20:02.317Z,2.92
2022-12-01T22:22:32.732Z,3.03
2022-12-01T22:25:26.211Z,2.79
2022-12-01T22:27:54.715Z,2.84
2022-12-01T22:30:24.119Z,2.93
2022-12-01T22:33:00.298Z,2.95
2022-12-01T22:35:45.316Z,2.97
2022-12-01T22:38:45.829Z,2.86
2022-12-01T22:41:16.635Z,2.72
2022-12-01T22:43:51.412Z,2.66
2022-12-01T22:46:34.827Z,2.89
2022-12-01T22:49:23.686Z,2.77
2022-12-01T22:52:17.258Z,2.80
2022-12-01T22:54:49.233Z,2.91
2022-12-01T22:57:33.308Z,2.74
2022-12-01T23:00:22.013Z,2.60
2022-12-01T23:02:55.471Z,2.85
2022-12-01T23:05:27.255Z,2.97
2022-12-01T23:07:56.611Z,3.05
2022-12-01T23:10:30.330Z,2.97
2022-12-01T23:13:08.751Z,2.88
2022-12-01T23:15:45.212Z,2.89
2022-12-01T23:18:21.123Z,2.82
2022-12-01T23:20:58.617Z,2.88
2022-12-01T23:23:33.161Z,2.88
2022-12-01T23:26:04.557Z,2.76
2022-12-01T23:28:36.764Z,2.70
2022-12-01T23:31:04.757Z,2.77
2022-12-01T23:33:34.175Z,2.79
2022-12-01T23:36:18.335Z,2.82
2022-12-01T23:38:51.374Z,2.88
2022-12-01T23:41:32.626Z,2.91
2022-12-01T23:44:08.851Z,2.90
2022-12-01T23:46:37.037Z,2.57
2022-12-01T23:49:12.720Z,2.61
2022-12-01T23:51:49.881Z,2.64
2022-12-01T23:54:26.077Z,2.50
2022-12-01T23:56:58.379Z,2.39
2022-12-01T23:59:28.326Z,2.48
